sensor_id;sensor_type;location;lat;lon;timestamp;P1;durP1;ratioP1;P2;durP2;ratioP2
177;SDS011;77;48.792;9.032;2023-01-05T08:38:51;7.43;;;2.90;;
177;SDS011;77;48.792;9.032;2023-01-05T08:41:17;9.07;;;3.00;;
177;SDS011;77;48.792;9.032;2023-01-05T08:43:42;7.47;;;2.30;;
177;SDS011;77;48.792;9.032;2023-01-05T08:46:08;11.97;;;3.00;;
177;SDS011;77;48.792;9.032;2023-01-05T08:48:33;10.93;;;2.87;;
177;SDS011;77;48.792;9.032;2023-01-05T08:50:59;8.10;;;2.63;;
177;SDS011;77;48.792;9.032;2023-01-05T08:53:24;7.40;;;2.50;;
177;SDS011;77;48.792;9.032;2023-01-05T08:55:51;5.50;;;2.30;;
177;SDS011;77;48.792;9.032;2023-01-05T08:58:16;8.77;;;2.80;;
177;SDS011;77;48.792;9.032;2023-01-05T09:00:41;7.37;;;2.70;;
177;SDS011;77;48.792;9.032;2023-01-05T09:03:07;8.30;;;2.80;;
177;SDS011;77;48.792;9.032;2023-01-05T09:05:32;11.40;;;2.80;;
177;SDS011;77;48.792;9.032;2023-01-05T09:07:58;11.37;;;2.70;;
177;SDS011;77;48.792;9.032;2023-01-05T09:10:23;11.47;;;2.80;;
177;SDS011;77;48.792;9.032;2023-01-05T09:12:50;8.60;;;2.70;;
177;SDS011;77;48.792;9.032;2023-01-05T09:15:15;8.50;;;2.93;;
177;SDS011;77;48.792;9.032;2023-01-05T09:17:40;11.00;;;2.90;;
177;SDS011;77;48.792;9.032;2023-01-05T09:20:08;9.57;;;2.70;;
177;SDS011;77;48.792;9.032;2023-01-05T09:22:34;9.80;;;2.70;;
177;SDS011;77;48.792;9.032;2023-01-05T09:24:59;11.90;;;3.23;;
177;SDS011;77;48.792;9.032;2023-01-05T09:27:24;15.53;;;3.17;;
177;SDS011;77;48.792;9.032;2023-01-05T09:29:51;9.73;;;3.00;;
177;SDS011;77;48.792;9.032;2023-01-05T09:32:16;10.40;;;2.60;;
177;SDS011;77;48.792;9.032;2023-01-05T09:34:41;14.23;;;3.13;;
177;SDS011;77;48.792;9.032;2023-01-05T09:37:07;10.33;;;2.90;;
177;SDS011;77;48.792;9.032;2023-01-05T09:39:32;10.43;;;3.07;;
177;SDS011;77;48.792;9.032;2023-01-05T09:41:57;11.00;;;3.10;;
177;SDS011;77;48.792;9.032;2023-01-05T09:44:28;9.23;;;2.80;;
177;SDS011;77;48.792;9.032;2023-01-05T09:46:56;9.77;;;3.10;;
177;SDS011;77;48.792;9.032;2023-01-05T09:49:24;16.50;;;4.00;;
177;SDS011;77;48.792;9.032;2023-01-05T09:51:52;12.20;;;3.13;;
177;SDS011;77;48.792;9.032;2023-01-05T09:54:18;11.20;;;3.40;;
177;SDS011;77;48.792;9.032;2023-01-05T09:56:44;11.60;;;3.30;;
177;SDS011;77;48.792;9.032;2023-01-05T09:59:11;10.17;;;3.00;;
177;SDS011;77;48.792;9.032;2023-01-05T10:01:38;13.40;;;3.50;;
177;SDS011;77;48.792;9.032;2023-01-05T10:04:06;10.97;;;3.43;;
177;SDS011;77;48.792;9.032;2023-01-05T10:06:34;15.60;;;3.10;;
177;SDS011;77;48.792;9.032;2023-01-05T10:09:01;14.83;;;3.50;;
177;SDS011;77;48.792;9.032;2023-01-05T10:11:30;9.90;;;3.03;;
177;SDS011;77;48.792;9.032;2023-01-05T10:13:58;15.37;;;3.30;;
177;SDS011;77;48.792;9.032;2023-01-05T10:16:26;11.13;;;3.17;;
177;SDS011;77;48.792;9.032;2023-01-05T10:18:51;9.53;;;3.00;;
177;SDS011;77;48.792;9.032;2023-01-05T10:21:20;10.80;;;3.63;;
177;SDS011;77;48.792;9.032;2023-01-05T10:26:29;12.90;;;3.47;;
177;SDS011;77;48.792;9.032;2023-01-05T10:28:58;12.00;;;3.47;;
177;SDS011;77;48.792;9.032;2023-01-05T10:31:27;13.30;;;3.63;;
177;SDS011;77;48.792;9.032;2023-01-05T10:33:56;13.27;;;3.33;;
177;SDS011;77;48.792;9.032;2023-01-05T10:36:28;10.80;;;3.17;;
177;SDS011;77;48.792;9.032;2023-01-05T10:38:57;10.07;;;3.10;;
177;SDS011;77;48.792;9.032;2023-01-05T10:41:26;12.10;;;3.10;;
177;SDS011;77;48.792;9.032;2023-01-05T10:44:00;12.93;;;3.27;;
177;SDS011;77;48.792;9.032;2023-01-05T10:46:29;10.10;;;3.20;;
177;SDS011;77;48.792;9.032;2023-01-05T10:48:55;13.50;;;3.20;;
177;SDS011;77;48.792;9.032;2023-01-05T10:51:20;10.27;;;3.00;;
177;SDS011;77;48.792;9.032;2023-01-05T10:53:47;11.50;;;3.20;;
177;SDS011;77;48.792;9.032;2023-01-05T10:56:13;12.00;;;3.03;;
177;SDS011;77;48.792;9.032;2023-01-05T10:58:39;12.20;;;3.67;;
177;SDS011;77;48.792;9.032;2023-01-05T11:01:06;13.17;;;3.30;;
177;SDS011;77;48.792;9.032;2023-01-05T11:03:38;15.90;;;3.27;;
177;SDS011;77;48.792;9.032;2023-01-05T11:06:05;11.83;;;3.20;;
177;SDS011;77;48.792;9.032;2023-01-05T11:08:31;13.50;;;3.50;;
177;SDS011;77;48.792;9.032;2023-01-05T11:10:58;11.27;;;3.30;;
177;SDS011;77;48.792;9.032;2023-01-05T11:13:27;12.93;;;2.67;;
177;SDS011;77;48.792;9.032;2023-01-05T11:15:53;12.80;;;3.43;;
177;SDS011;77;48.792;9.032;2023-01-05T11:18:24;11.30;;;3.37;;
177;SDS011;77;48.792;9.032;2023-01-05T11:21:09;11.90;;;3.40;;
177;SDS011;77;48.792;9.032;2023-01-05T11:23:35;11.70;;;3.13;;
177;SDS011;77;48.792;9.032;2023-01-05T11:26:11;11.80;;;3.00;;
177;SDS011;77;48.792;9.032;2023-01-05T11:28:47;12.23;;;3.50;;
177;SDS011;77;48.792;9.032;2023-01-05T11:31:20;12.90;;;3.53;;
177;SDS011;77;48.792;9.032;2023-01-05T11:33:46;9.93;;;3.23;;
177;SDS011;77;48.792;9.032;2023-01-05T11:36:14;9.83;;;3.50;;
177;SDS011;77;48.792;9.032;2023-01-05T11:38:43;14.30;;;3.63;;
177;SDS011;77;48.792;9.032;2023-01-05T11:41:10;10.53;;;3.57;;
177;SDS011;77;48.792;9.032;2023-01-05T11:43:36;10.50;;;3.27;;
177;SDS011;77;48.792;9.032;2023-01-05T11:46:02;11.63;;;3.60;;
177;SDS011;77;48.792;9.032;2023-01-05T11:48:29;11.17;;;3.07;;
177;SDS011;77;48.792;9.032;2023-01-05T11:50:55;10.60;;;3.47;;
177;SDS011;77;48.792;9.032;2023-01-05T11:53:25;12.13;;;3.37;;
177;SDS011;77;48.792;9.032;2023-01-05T11:55:57;12.03;;;3.33;;
177;SDS011;77;48.792;9.032;2023-01-05T11:58:24;12.20;;;3.10;;
177;SDS011;77;48.792;9.032;2023-01-05T12:00:57;9.50;;;3.13;;
177;SDS011;77;48.792;9.032;2023-01-05T12:06:07;12.03;;;2.80;;
177;SDS011;77;48.792;9.032;2023-01-05T12:08:35;12.30;;;3.23;;
177;SDS011;77;48.792;9.032;2023-01-05T12:11:09;12.83;;;3.33;;
177;SDS011;77;48.792;9.032;2023-01-05T12:13:56;11.63;;;3.43;;
177;SDS011;77;48.792;9.032;2023-01-05T12:16:27;11.27;;;3.40;;
177;SDS011;77;48.792;9.032;2023-01-05T12:19:04;19.70;;;3.27;;
177;SDS011;77;48.792;9.032;2023-01-05T12:21:35;11.30;;;3.30;;
177;SDS011;77;48.792;9.032;2023-01-05T12:24:06;9.50;;;3.23;;
177;SDS011;77;48.792;9.032;2023-01-05T12:26:38;13.53;;;3.53;;
177;SDS011;77;48.792;9.032;2023-01-05T12:29:26;11.33;;;3.50;;
177;SDS011;77;48.792;9.032;2023-01-05T12:32:03;12.60;;;4.00;;
177;SDS011;77;48.792;9.032;2023-01-05T12:34:33;12.47;;;3.43;;
177;SDS011;77;48.792;9.032;2023-01-05T12:37:16;12.53;;;3.63;;
177;SDS011;77;48.792;9.032;2023-01-05T12:39:47;13.63;;;3.40;;
177;SDS011;77;48.792;9.032;2023-01-05T12:42:41;12.47;;;3.60;;
177;SDS011;77;48.792;9.032;2023-01-05T12:45:27;14.90;;;3.77;;
177;SDS011;77;48.792;9.032;2023-01-05T12:47:55;10.83;;;3.53;;
177;SDS011;77;48.792;9.032;2023-01-05T12:50:22;13.37;;;3.90;;
177;SDS011;77;48.792;9.032;2023-01-05T12:52:50;17.43;;;3.77;;
177;SDS011;77;48.792;9.032;2023-01-05T12:55:16;16.07;;;3.57;;
177;SDS011;77;48.792;9.032;2023-01-05T12:57:43;20.50;;;3.63;;
177;SDS011;77;48.792;9.032;2023-01-05T13:00:11;8.97;;;3.27;;
177;SDS011;77;48.792;9.032;2023-01-05T13:02:40;17.33;;;3.80;;
177;SDS011;77;48.792;9.032;2023-01-05T13:05:07;21.33;;;3.73;;
177;SDS011;77;48.792;9.032;2023-01-05T13:07:34;17.53;;;3.93;;
177;SDS011;77;48.792;9.032;2023-01-05T13:10:02;17.73;;;3.77;;
177;SDS011;77;48.792;9.032;2023-01-05T13:12:35;10.80;;;3.30;;
177;SDS011;77;48.792;9.032;2023-01-05T13:15:03;17.50;;;3.63;;
177;SDS011;77;48.792;9.032;2023-01-05T13:17:31;12.10;;;3.27;;
177;SDS011;77;48.792;9.032;2023-01-05T13:20:01;11.00;;;4.07;;
177;SDS011;77;48.792;9.032;2023-01-05T13:22:27;14.27;;;3.63;;
177;SDS011;77;48.792;9.032;2023-01-05T13:24:54;11.63;;;3.23;;
177;SDS011;77;48.792;9.032;2023-01-05T13:27:21;15.73;;;4.20;;
177;SDS011;77;48.792;9.032;2023-01-05T13:29:47;13.80;;;3.73;;
177;SDS011;77;48.792;9.032;2023-01-05T13:32:24;17.00;;;3.57;;
177;SDS011;77;48.792;9.032;2023-01-05T13:37:45;11.33;;;3.73;;
177;SDS011;77;48.792;9.032;2023-01-05T13:40:18;15.70;;;4.27;;
177;SDS011;77;48.792;9.032;2023-01-05T13:42:49;12.03;;;3.77;;
177;SDS011;77;48.792;9.032;2023-01-05T13:48:11;17.13;;;3.80;;
177;SDS011;77;48.792;9.032;2023-01-05T13:50:45;9.20;;;3.43;;
177;SDS011;77;48.792;9.032;2023-01-05T13:53:13;17.83;;;3.90;;
177;SDS011;77;48.792;9.032;2023-01-05T13:55:43;15.60;;;3.83;;
177;SDS011;77;48.792;9.032;2023-01-05T13:58:19;13.63;;;3.60;;
177;SDS011;77;48.792;9.032;2023-01-05T14:00:49;12.93;;;4.13;;
177;SDS011;77;48.792;9.032;2023-01-05T14:03:21;14.90;;;4.10;;
177;SDS011;77;48.792;9.032;2023-01-05T14:05:50;10.37;;;3.50;;
177;SDS011;77;48.792;9.032;2023-01-05T14:08:20;13.30;;;3.90;;
177;SDS011;77;48.792;9.032;2023-01-05T14:13:43;15.10;;;3.93;;
177;SDS011;77;48.792;9.032;2023-01-05T14:18:54;14.87;;;3.83;;
177;SDS011;77;48.792;9.032;2023-01-05T14:24:24;14.60;;;4.10;;
177;SDS011;77;48.792;9.032;2023-01-05T14:27:03;13.83;;;3.67;;
177;SDS011;77;48.792;9.032;2023-01-05T14:32:13;14.70;;;4.10;;
177;SDS011;77;48.792;9.032;2023-01-05T14:34:43;13.53;;;4.17;;
177;SDS011;77;48.792;9.032;2023-01-05T14:37:14;18.50;;;3.87;;
177;SDS011;77;48.792;9.032;2023-01-05T14:39:43;14.60;;;4.40;;
177;SDS011;77;48.792;9.032;2023-01-05T14:42:15;13.13;;;4.30;;
177;SDS011;77;48.792;9.032;2023-01-05T14:44:44;15.50;;;4.17;;
177;SDS011;77;48.792;9.032;2023-01-05T14:47:12;16.07;;;3.80;;
177;SDS011;77;48.792;9.032;2023-01-05T14:49:38;14.30;;;4.13;;
177;SDS011;77;48.792;9.032;2023-01-05T14:52:05;12.93;;;4.03;;
177;SDS011;77;48.792;9.032;2023-01-05T14:54:35;9.90;;;3.80;;
177;SDS011;77;48.792;9.032;2023-01-05T14:57:21;12.17;;;3.87;;
177;SDS011;77;48.792;9.032;2023-01-05T14:59:46;14.87;;;4.13;;
177;SDS011;77;48.792;9.032;2023-01-05T15:02:13;15.13;;;4.13;;
177;SDS011;77;48.792;9.032;2023-01-05T15:04:44;11.90;;;3.77;;
177;SDS011;77;48.792;9.032;2023-01-05T15:07:17;12.73;;;3.93;;
177;SDS011;77;48.792;9.032;2023-01-05T15:09:53;16.10;;;4.67;;
177;SDS011;77;48.792;9.032;2023-01-05T15:12:36;14.87;;;3.80;;
177;SDS011;77;48.792;9.032;2023-01-05T15:15:11;14.93;;;4.37;;
177;SDS011;77;48.792;9.032;2023-01-05T15:17:47;15.30;;;5.07;;
177;SDS011;77;48.792;9.032;2023-01-05T15:20:20;15.77;;;4.47;;
177;SDS011;77;48.792;9.032;2023-01-05T15:22:54;20.77;;;4.77;;
177;SDS011;77;48.792;9.032;2023-01-05T15:25:36;11.53;;;3.53;;
177;SDS011;77;48.792;9.032;2023-01-05T15:28:27;14.50;;;3.93;;
177;SDS011;77;48.792;9.032;2023-01-05T15:31:10;10.27;;;4.00;;
177;SDS011;77;48.792;9.032;2023-01-05T15:33:39;11.17;;;4.37;;
177;SDS011;77;48.792;9.032;2023-01-05T15:36:05;15.17;;;5.93;;
177;SDS011;77;48.792;9.032;2023-01-05T15:38:42;12.63;;;4.53;;
177;SDS011;77;48.792;9.032;2023-01-05T15:41:09;15.73;;;4.77;;
177;SDS011;77;48.792;9.032;2023-01-05T15:43:37;11.80;;;4.07;;
177;SDS011;77;48.792;9.032;2023-01-05T15:46:03;12.83;;;4.23;;
177;SDS011;77;48.792;9.032;2023-01-05T15:48:31;10.80;;;3.70;;
177;SDS011;77;48.792;9.032;2023-01-05T15:50:57;15.20;;;4.37;;
177;SDS011;77;48.792;9.032;2023-01-05T15:53:26;10.40;;;3.90;;
177;SDS011;77;48.792;9.032;2023-01-05T15:55:52;13.80;;;3.93;;
177;SDS011;77;48.792;9.032;2023-01-05T15:58:18;14.80;;;4.13;;
177;SDS011;77;48.792;9.032;2023-01-05T16:01:00;10.13;;;3.90;;
177;SDS011;77;48.792;9.032;2023-01-05T16:03:26;12.80;;;4.60;;
177;SDS011;77;48.792;9.032;2023-01-05T16:05:54;14.17;;;4.17;;
177;SDS011;77;48.792;9.032;2023-01-05T16:08:19;14.57;;;4.73;;
177;SDS011;77;48.792;9.032;2023-01-05T16:10:46;13.03;;;4.60;;
177;SDS011;77;48.792;9.032;2023-01-05T16:13:13;11.57;;;4.10;;
177;SDS011;77;48.792;9.032;2023-01-05T16:15:39;11.30;;;3.90;;
177;SDS011;77;48.792;9.032;2023-01-05T16:18:09;14.00;;;4.23;;
177;SDS011;77;48.792;9.032;2023-01-05T16:20:36;13.23;;;4.60;;
177;SDS011;77;48.792;9.032;2023-01-05T16:23:04;13.53;;;3.93;;
177;SDS011;77;48.792;9.032;2023-01-05T16:25:33;13.57;;;3.97;;
177;SDS011;77;48.792;9.032;2023-01-05T16:28:00;9.53;;;3.63;;
177;SDS011;77;48.792;9.032;2023-01-05T16:30:26;13.03;;;4.37;;
177;SDS011;77;48.792;9.032;2023-01-05T16:32:54;13.00;;;4.40;;
177;SDS011;77;48.792;9.032;2023-01-05T16:35:29;9.30;;;3.80;;
177;SDS011;77;48.792;9.032;2023-01-05T16:38:01;13.80;;;4.27;;
177;SDS011;77;48.792;9.032;2023-01-05T16:40:26;12.73;;;3.83;;
177;SDS011;77;48.792;9.032;2023-01-05T16:42:52;16.50;;;4.37;;
177;SDS011;77;48.792;9.032;2023-01-05T16:45:18;12.90;;;4.30;;
177;SDS011;77;48.792;9.032;2023-01-05T16:47:43;9.97;;;4.20;;
177;SDS011;77;48.792;9.032;2023-01-05T16:52:51;12.23;;;4.43;;
177;SDS011;77;48.792;9.032;2023-01-05T16:55:19;17.57;;;5.37;;
177;SDS011;77;48.792;9.032;2023-01-05T16:57:45;11.90;;;5.00;;
177;SDS011;77;48.792;9.032;2023-01-05T17:00:31;12.93;;;5.00;;
177;SDS011;77;48.792;9.032;2023-01-05T17:02:56;12.90;;;5.00;;
177;SDS011;77;48.792;9.032;2023-01-05T17:05:23;14.17;;;5.37;;
177;SDS011;77;48.792;9.032;2023-01-05T17:07:49;17.83;;;5.40;;
177;SDS011;77;48.792;9.032;2023-01-05T17:10:18;15.57;;;4.93;;
177;SDS011;77;48.792;9.032;2023-01-05T17:12:44;14.33;;;5.47;;
177;SDS011;77;48.792;9.032;2023-01-05T17:15:15;12.27;;;4.60;;
177;SDS011;77;48.792;9.032;2023-01-05T17:17:41;11.07;;;4.57;;
177;SDS011;77;48.792;9.032;2023-01-05T17:20:09;13.97;;;4.70;;
177;SDS011;77;48.792;9.032;2023-01-05T17:22:35;14.80;;;4.63;;
177;SDS011;77;48.792;9.032;2023-01-05T17:25:00;13.17;;;4.80;;
177;SDS011;77;48.792;9.032;2023-01-05T17:27:26;15.40;;;5.00;;
177;SDS011;77;48.792;9.032;2023-01-05T17:29:52;14.80;;;4.93;;
177;SDS011;77;48.792;9.032;2023-01-05T17:32:17;13.33;;;4.67;;
177;SDS011;77;48.792;9.032;2023-01-05T17:34:42;16.67;;;5.47;;
177;SDS011;77;48.792;9.032;2023-01-05T17:37:09;19.37;;;4.70;;
177;SDS011;77;48.792;9.032;2023-01-05T17:39:36;12.17;;;4.67;;
177;SDS011;77;48.792;9.032;2023-01-05T17:42:01;11.60;;;4.77;;
177;SDS011;77;48.792;9.032;2023-01-05T17:44:27;10.80;;;4.67;;
177;SDS011;77;48.792;9.032;2023-01-05T17:46:52;11.47;;;4.50;;
177;SDS011;77;48.792;9.032;2023-01-05T17:49:18;12.63;;;4.90;;
177;SDS011;77;48.792;9.032;2023-01-05T17:51:44;16.60;;;5.73;;
177;SDS011;77;48.792;9.032;2023-01-05T17:54:09;11.80;;;4.83;;
177;SDS011;77;48.792;9.032;2023-01-05T17:56:34;14.60;;;4.70;;
177;SDS011;77;48.792;9.032;2023-01-05T17:59:02;12.70;;;5.50;;
177;SDS011;77;48.792;9.032;2023-01-05T18:01:28;13.83;;;4.80;;
177;SDS011;77;48.792;9.032;2023-01-05T18:03:54;16.97;;;4.93;;
177;SDS011;77;48.792;9.032;2023-01-05T18:06:19;15.83;;;4.63;;
177;SDS011;77;48.792;9.032;2023-01-05T18:08:44;13.00;;;4.60;;
177;SDS011;77;48.792;9.032;2023-01-05T18:11:09;13.73;;;4.80;;
177;SDS011;77;48.792;9.032;2023-01-05T18:13:35;11.73;;;4.10;;
177;SDS011;77;48.792;9.032;2023-01-05T18:16:04;11.60;;;3.90;;
177;SDS011;77;48.792;9.032;2023-01-05T18:18:30;10.10;;;3.80;;
177;SDS011;77;48.792;9.032;2023-01-05T18:20:57;12.83;;;4.53;;
177;SDS011;77;48.792;9.032;2023-01-05T18:23:23;14.47;;;4.60;;
177;SDS011;77;48.792;9.032;2023-01-05T18:25:48;12.03;;;4.70;;
177;SDS011;77;48.792;9.032;2023-01-05T18:28:13;10.30;;;4.87;;
177;SDS011;77;48.792;9.032;2023-01-05T18:30:39;9.80;;;4.17;;
177;SDS011;77;48.792;9.032;2023-01-05T18:33:04;10.87;;;4.53;;
177;SDS011;77;48.792;9.032;2023-01-05T18:35:31;10.43;;;4.27;;
177;SDS011;77;48.792;9.032;2023-01-05T18:37:56;13.60;;;4.77;;
177;SDS011;77;48.792;9.032;2023-01-05T18:40:22;17.23;;;5.70;;
177;SDS011;77;48.792;9.032;2023-01-05T18:42:47;16.40;;;5.87;;
177;SDS011;77;48.792;9.032;2023-01-05T18:45:12;13.60;;;5.83;;
177;SDS011;77;48.792;9.032;2023-01-05T18:47:37;11.90;;;4.93;;
177;SDS011;77;48.792;9.032;2023-01-05T18:50:03;8.83;;;4.57;;
177;SDS011;77;48.792;9.032;2023-01-05T18:52:39;11.90;;;5.27;;
177;SDS011;77;48.792;9.032;2023-01-05T18:55:05;12.60;;;5.43;;
177;SDS011;77;48.792;9.032;2023-01-05T18:57:31;15.43;;;5.53;;
177;SDS011;77;48.792;9.032;2023-01-05T18:59:56;16.60;;;5.33;;
177;SDS011;77;48.792;9.032;2023-01-05T19:02:21;12.80;;;5.10;;
177;SDS011;77;48.792;9.032;2023-01-05T19:04:47;9.40;;;4.50;;
177;SDS011;77;48.792;9.032;2023-01-05T19:07:12;9.53;;;3.80;;
177;SDS011;77;48.792;9.032;2023-01-05T19:09:39;6.60;;;3.60;;
177;SDS011;77;48.792;9.032;2023-01-05T19:12:04;7.40;;;3.40;;
177;SDS011;77;48.792;9.032;2023-01-05T19:14:29;7.10;;;3.40;;
177;SDS011;77;48.792;9.032;2023-01-05T19:16:55;10.90;;;3.93;;
177;SDS011;77;48.792;9.032;2023-01-05T19:19:20;7.73;;;3.77;;
177;SDS011;77;48.792;9.032;2023-01-05T19:21:45;7.03;;;3.23;;
177;SDS011;77;48.792;9.032;2023-01-05T19:24:12;13.23;;;4.30;;
177;SDS011;77;48.792;9.032;2023-01-05T19:26:39;9.90;;;3.60;;
177;SDS011;77;48.792;9.032;2023-01-05T19:29:04;7.50;;;3.50;;
177;SDS011;77;48.792;9.032;2023-01-05T19:31:29;8.90;;;3.90;;
177;SDS011;77;48.792;9.032;2023-01-05T19:33:55;6.90;;;3.30;;
177;SDS011;77;48.792;9.032;2023-01-05T19:36:21;7.87;;;3.70;;
177;SDS011;77;48.792;9.032;2023-01-05T19:38:47;7.63;;;3.67;;
177;SDS011;77;48.792;9.032;2023-01-05T19:41:13;7.47;;;3.60;;
177;SDS011;77;48.792;9.032;2023-01-05T19:43:40;5.13;;;3.33;;
177;SDS011;77;48.792;9.032;2023-01-05T19:46:06;8.97;;;3.63;;
177;SDS011;77;48.792;9.032;2023-01-05T19:48:31;7.10;;;3.53;;
177;SDS011;77;48.792;9.032;2023-01-05T19:50:57;7.30;;;3.77;;
177;SDS011;77;48.792;9.032;2023-01-05T19:53:22;7.70;;;3.40;;
177;SDS011;77;48.792;9.032;2023-01-05T19:55:47;5.40;;;3.30;;
177;SDS011;77;48.792;9.032;2023-01-05T19:58:12;6.73;;;3.50;;
177;SDS011;77;48.792;9.032;2023-01-05T20:00:39;6.00;;;3.53;;
177;SDS011;77;48.792;9.032;2023-01-05T20:03:04;6.50;;;3.30;;
177;SDS011;77;48.792;9.032;2023-01-05T20:05:29;6.73;;;3.57;;
177;SDS011;77;48.792;9.032;2023-01-05T20:07:55;7.40;;;3.20;;
177;SDS011;77;48.792;9.032;2023-01-05T20:10:20;7.80;;;3.57;;
177;SDS011;77;48.792;9.032;2023-01-05T20:12:45;7.00;;;3.77;;
177;SDS011;77;48.792;9.032;2023-01-05T20:15:10;8.37;;;3.87;;
177;SDS011;77;48.792;9.032;2023-01-05T20:17:37;6.40;;;3.43;;
177;SDS011;77;48.792;9.032;2023-01-05T20:20:02;6.43;;;3.60;;
177;SDS011;77;48.792;9.032;2023-01-05T20:22:27;6.30;;;3.70;;
177;SDS011;77;48.792;9.032;2023-01-05T20:24:53;7.23;;;3.30;;
177;SDS011;77;48.792;9.032;2023-01-05T20:27:18;7.70;;;3.80;;
177;SDS011;77;48.792;9.032;2023-01-05T20:29:43;7.23;;;3.50;;
177;SDS011;77;48.792;9.032;2023-01-05T20:32:10;6.40;;;3.27;;
177;SDS011;77;48.792;9.032;2023-01-05T20:34:38;8.30;;;3.70;;
177;SDS011;77;48.792;9.032;2023-01-05T20:37:04;5.77;;;3.27;;
177;SDS011;77;48.792;9.032;2023-01-05T20:39:30;6.13;;;3.10;;
177;SDS011;77;48.792;9.032;2023-01-05T20:41:55;6.07;;;3.27;;
177;SDS011;77;48.792;9.032;2023-01-05T20:44:21;8.33;;;3.27;;
177;SDS011;77;48.792;9.032;2023-01-05T20:46:47;6.97;;;3.10;;
177;SDS011;77;48.792;9.032;2023-01-05T20:49:13;7.67;;;3.30;;
177;SDS011;77;48.792;9.032;2023-01-05T20:51:40;7.17;;;3.43;;
177;SDS011;77;48.792;9.032;2023-01-05T20:54:06;5.53;;;2.93;;
177;SDS011;77;48.792;9.032;2023-01-05T20:56:32;6.33;;;3.20;;
177;SDS011;77;48.792;9.032;2023-01-05T20:58:57;6.70;;;3.30;;
177;SDS011;77;48.792;9.032;2023-01-05T21:01:23;6.37;;;3.17;;
177;SDS011;77;48.792;9.032;2023-01-05T21:03:48;7.30;;;3.33;;
177;SDS011;77;48.792;9.032;2023-01-05T21:06:14;4.40;;;2.93;;
177;SDS011;77;48.792;9.032;2023-01-05T21:08:42;6.20;;;3.30;;
177;SDS011;77;48.792;9.032;2023-01-05T21:11:09;5.27;;;3.40;;
177;SDS011;77;48.792;9.032;2023-01-05T21:13:34;5.80;;;3.20;;
177;SDS011;77;48.792;9.032;2023-01-05T21:16:01;5.47;;;3.37;;
177;SDS011;77;48.792;9.032;2023-01-05T21:18:26;7.40;;;3.80;;
177;SDS011;77;48.792;9.032;2023-01-05T21:20:52;5.73;;;3.40;;
177;SDS011;77;48.792;9.032;2023-01-05T21:23:17;5.23;;;3.50;;
177;SDS011;77;48.792;9.032;2023-01-05T21:25:46;8.10;;;3.77;;
177;SDS011;77;48.792;9.032;2023-01-05T21:28:12;5.47;;;3.80;;
177;SDS011;77;48.792;9.032;2023-01-05T21:30:37;8.73;;;3.93;;
177;SDS011;77;48.792;9.032;2023-01-05T21:33:02;6.80;;;4.27;;
177;SDS011;77;48.792;9.032;2023-01-05T21:35:28;6.30;;;4.00;;
177;SDS011;77;48.792;9.032;2023-01-05T21:37:53;7.07;;;4.20;;
177;SDS011;77;48.792;9.032;2023-01-05T21:40:18;6.93;;;4.10;;
177;SDS011;77;48.792;9.032;2023-01-05T21:42:45;6.70;;;3.90;;
177;SDS011;77;48.792;9.032;2023-01-05T21:45:11;6.57;;;3.70;;
177;SDS011;77;48.792;9.032;2023-01-05T21:47:39;6.13;;;3.70;;
177;SDS011;77;48.792;9.032;2023-01-05T21:50:05;8.20;;;4.00;;
177;SDS011;77;48.792;9.032;2023-01-05T21:52:31;7.30;;;3.90;;
177;SDS011;77;48.792;9.032;2023-01-05T21:54:56;8.33;;;4.40;;
177;SDS011;77;48.792;9.032;2023-01-05T21:57:21;7.60;;;4.50;;
177;SDS011;77;48.792;9.032;2023-01-05T21:59:48;6.20;;;4.23;;
177;SDS011;77;48.792;9.032;2023-01-05T22:02:13;8.00;;;4.30;;
177;SDS011;77;48.792;9.032;2023-01-05T22:04:38;5.57;;;3.60;;
177;SDS011;77;48.792;9.032;2023-01-05T22:07:03;7.90;;;3.90;;
177;SDS011;77;48.792;9.032;2023-01-05T22:09:29;9.00;;;4.20;;
177;SDS011;77;48.792;9.032;2023-01-05T22:11:54;6.80;;;3.67;;
177;SDS011;77;48.792;9.032;2023-01-05T22:14:19;6.33;;;3.90;;
177;SDS011;77;48.792;9.032;2023-01-05T22:16:46;5.53;;;3.80;;
177;SDS011;77;48.792;9.032;2023-01-05T22:19:11;5.80;;;3.60;;
177;SDS011;77;48.792;9.032;2023-01-05T22:21:36;5.23;;;3.23;;
177;SDS011;77;48.792;9.032;2023-01-05T22:24:02;6.30;;;3.87;;
177;SDS011;77;48.792;9.032;2023-01-05T22:26:27;5.47;;;3.77;;
177;SDS011;77;48.792;9.032;2023-01-05T22:28:52;5.40;;;3.47;;
177;SDS011;77;48.792;9.032;2023-01-05T22:31:19;4.90;;;3.30;;
177;SDS011;77;48.792;9.032;2023-01-05T22:33:46;4.97;;;3.57;;
177;SDS011;77;48.792;9.032;2023-01-05T22:36:12;5.30;;;3.50;;
177;SDS011;77;48.792;9.032;2023-01-05T22:38:39;4.80;;;3.20;;
177;SDS011;77;48.792;9.032;2023-01-05T22:41:05;5.17;;;3.27;;
177;SDS011;77;48.792;9.032;2023-01-05T22:43:31;5.83;;;3.30;;
177;SDS011;77;48.792;9.032;2023-01-05T22:45:59;4.47;;;2.80;;
177;SDS011;77;48.792;9.032;2023-01-05T22:48:24;5.83;;;3.10;;
177;SDS011;77;48.792;9.032;2023-01-05T22:50:52;6.30;;;3.43;;
177;SDS011;77;48.792;9.032;2023-01-05T22:53:17;4.87;;;3.00;;
177;SDS011;77;48.792;9.032;2023-01-05T22:55:42;4.60;;;3.00;;
177;SDS011;77;48.792;9.032;2023-01-05T22:58:07;5.93;;;3.00;;
177;SDS011;77;48.792;9.032;2023-01-05T23:00:33;4.27;;;2.90;;
177;SDS011;77;48.792;9.032;2023-01-05T23:02:58;4.43;;;3.00;;
177;SDS011;77;48.792;9.032;2023-01-05T23:05:23;6.43;;;3.37;;
177;SDS011;77;48.792;9.032;2023-01-05T23:07:50;5.53;;;2.80;;
177;SDS011;77;48.792;9.032;2023-01-05T23:10:15;5.20;;;3.00;;
177;SDS011;77;48.792;9.032;2023-01-05T23:12:40;6.10;;;2.97;;
177;SDS011;77;48.792;9.032;2023-01-05T23:15:06;4.63;;;2.97;;
177;SDS011;77;48.792;9.032;2023-01-05T23:17:31;5.60;;;3.10;;
177;SDS011;77;48.792;9.032;2023-01-05T23:19:56;5.10;;;3.10;;
177;SDS011;77;48.792;9.032;2023-01-05T23:22:22;7.03;;;3.07;;
177;SDS011;77;48.792;9.032;2023-01-05T23:24:48;5.37;;;2.77;;
177;SDS011;77;48.792;9.032;2023-01-05T23:27:13;4.47;;;2.90;;
177;SDS011;77;48.792;9.032;2023-01-05T23:29:39;5.03;;;2.80;;
177;SDS011;77;48.792;9.032;2023-01-05T23:32:04;6.60;;;2.70;;
177;SDS011;77;48.792;9.032;2023-01-05T23:34:29;5.53;;;2.60;;
177;SDS011;77;48.792;9.032;2023-01-05T23:37:03;4.27;;;2.70;;
177;SDS011;77;48.792;9.032;2023-01-05T23:39:29;5.90;;;3.00;;
177;SDS011;77;48.792;9.032;2023-01-05T23:41:55;4.07;;;2.60;;
177;SDS011;77;48.792;9.032;2023-01-05T23:44:20;5.30;;;2.83;;
177;SDS011;77;48.792;9.032;2023-01-05T23:46:46;5.33;;;2.80;;
177;SDS011;77;48.792;9.032;2023-01-05T23:49:12;4.67;;;2.70;;
177;SDS011;77;48.792;9.032;2023-01-05T23:51:38;5.77;;;2.90;;
177;SDS011;77;48.792;9.032;2023-01-05T23:54:03;5.73;;;2.80;;
177;SDS011;77;48.792;9.032;2023-01-05T23:56:29;4.40;;;2.80;;
177;SDS011;77;48.792;9.032;2023-01-05T23:58:57;4.87;;;2.70;;
